Time;durP1;ratioP1;P1;durP2;ratioP2;P2;SDS_P1;SDS_P2;PMS_P1;PMS_P2;Temp;Humidity;BMP_temperature;BMP_pressure;BME280_temperature;BME280_humidity;BME280_pressure;Samples;Min_cycle;Max_cycle;Signal;HPM_P1;HPM_P2
2023/08/21 00:00:48;;;;;;;13.10;11.90;;;;;;;-128.00;-1.00;-1.00;18875;295;7504741;-33
2023/08/21 00:03:13;;;;;;;13.20;10.40;;;;;;;-128.00;-1.00;-1.00;18491;295;7505981;-32
2023/08/21 00:05:39;;;;;;;10.60;9.50;;;;;;;-128.00;-1.00;-1.00;18477;319;7506004;-33
2023/08/21 00:08:05;;;;;;;12.00;9.70;;;;;;;-128.00;-1.00;-1.00;18875;295;7505306;-33
2023/08/21 00:10:32;;;;;;;13.60;11.30;;;;;;;-128.00;-1.00;-1.00;18867;295;7504403;-32
2023/08/21 00:12:58;;;;;;;9.20;8.40;;;;;;;-128.00;-1.00;-1.00;18468;297;7504583;-36
2023/08/21 00:15:24;;;;;;;24.40;9.20;;;;;;;-128.00;-1.00;-1.00;18475;295;7505541;-33
2023/08/21 00:17:50;;;;;;;13.00;10.20;;;;;;;-128.00;-1.00;-1.00;18898;287;7504912;-33
2023/08/21 00:20:16;;;;;;;15.90;9.50;;;;;;;-128.00;-1.00;-1.00;18898;295;7504264;-36
2023/08/21 00:22:43;;;;;;;9.80;8.90;;;;;;;-128.00;-1.00;-1.00;18877;287;7504349;-32
2023/08/21 00:25:09;;;;;;;10.30;9.40;;;;;;;-128.00;-1.00;-1.00;18887;295;7504394;-36
2023/08/21 00:27:35;;;;;;;12.30;9.90;;;;;;;-128.00;-1.00;-1.00;18879;295;7505299;-36
2023/08/21 00:30:02;;;;;;;10.60;9.40;;;;;;;-128.00;-1.00;-1.00;18881;336;7504704;-31
2023/08/21 00:32:28;;;;;;;25.10;8.90;;;;;;;-128.00;-1.00;-1.00;18886;295;7504766;-35
2023/08/21 00:34:54;;;;;;;10.00;8.10;;;;;;;-128.00;-1.00;-1.00;18891;295;7504840;-31
2023/08/21 01:19:10;;;;;;;15.70;12.40;;;;;;;-98.53;19.20;19966.35;19574;294;8045706;-35
2023/08/21 01:21:35;;;;;;;17.00;11.00;;;;;;;-128.00;-1.00;-1.00;18080;288;7504786;-35
2023/08/21 01:24:02;;;;;;;15.10;12.10;;;;;;;-128.00;-1.00;-1.00;18875;294;7505094;-31
2023/08/21 01:26:28;;;;;;;15.30;12.30;;;;;;;-128.00;-1.00;-1.00;18899;318;7504624;-32
2023/08/21 01:28:54;;;;;;;12.20;10.40;;;;;;;-128.00;-1.00;-1.00;18898;306;7504448;-35
2023/08/21 01:31:24;;;;;;;13.00;11.60;;;;;;;-128.00;-1.00;-1.00;18862;306;7504877;-35
2023/08/21 01:33:52;;;;;;;9.30;8.50;;;;;;;-128.00;-1.00;-1.00;18485;335;7504596;-32
2023/08/21 01:36:17;;;;;;;8.50;7.70;;;;;;;-128.00;-1.00;-1.00;18473;295;7504602;-34
2023/08/21 01:38:44;;;;;;;12.90;11.40;;;;;;;-128.00;-1.00;-1.00;18875;347;7504820;-30
2023/08/21 01:41:10;;;;;;;11.50;10.40;;;;;;;-128.00;-1.00;-1.00;18912;294;7505047;-32
2023/08/21 01:43:36;;;;;;;11.90;9.60;;;;;;;-128.00;-1.00;-1.00;18882;294;7504943;-35
2023/08/21 01:46:03;;;;;;;12.10;10.70;;;;;;;-128.00;-1.00;-1.00;18874;294;7505143;-34
2023/08/21 01:48:29;;;;;;;11.30;9.80;;;;;;;-128.00;-1.00;-1.00;18458;335;7506275;-35
2023/08/21 01:50:55;;;;;;;13.90;12.30;;;;;;;-128.00;-1.00;-1.00;18462;294;7506036;-32
2023/08/21 01:53:20;;;;;;;10.40;9.40;;;;;;;-128.00;-1.00;-1.00;18478;294;7504761;-31
2023/08/21 01:55:46;;;;;;;15.20;11.80;;;;;;;-128.00;-1.00;-1.00;18455;294;7504526;-31
2023/08/21 01:58:12;;;;;;;14.70;10.40;;;;;;;-128.00;-1.00;-1.00;18481;294;7506014;-32
2023/08/21 02:00:37;;;;;;;10.10;9.10;;;;;;;-128.00;-1.00;-1.00;18467;294;7506090;-35
2023/08/21 02:03:03;;;;;;;12.20;11.00;;;;;;;-128.00;-1.00;-1.00;18465;294;7504543;-31
2023/08/21 02:05:29;;;;;;;10.70;9.70;;;;;;;-128.00;-1.00;-1.00;18472;331;7504547;-33
2023/08/21 02:07:54;;;;;;;11.20;10.20;;;;;;;-128.00;-1.00;-1.00;18496;294;7504848;-35
2023/08/21 02:10:20;;;;;;;12.40;11.20;;;;;;;-128.00;-1.00;-1.00;18474;288;7505736;-35
2023/08/21 02:12:47;;;;;;;19.00;12.70;;;;;;;-128.00;-1.00;-1.00;18474;294;7505988;-32
2023/08/21 02:15:13;;;;;;;12.90;11.70;;;;;;;-128.00;-1.00;-1.00;18457;294;7506110;-35
2023/08/21 02:17:39;;;;;;;12.90;9.20;;;;;;;-128.00;-1.00;-1.00;18455;294;7504690;-35
2023/08/21 02:20:06;;;;;;;11.90;10.80;;;;;;;-128.00;-1.00;-1.00;18488;347;7504684;-32
2023/08/21 02:22:32;;;;;;;19.20;13.70;;;;;;;-128.00;-1.00;-1.00;18467;330;7504304;-33
2023/08/21 02:24:58;;;;;;;16.60;13.30;;;;;;;-128.00;-1.00;-1.00;18894;294;7504378;-33
2023/08/21 02:27:24;;;;;;;14.40;13.00;;;;;;;-128.00;-1.00;-1.00;18877;287;7504610;-32
2023/08/21 02:29:50;;;;;;;19.90;14.90;;;;;;;-128.00;-1.00;-1.00;18898;294;7506226;-36
2023/08/21 02:32:17;;;;;;;17.90;13.90;;;;;;;-128.00;-1.00;-1.00;18860;295;7504423;-36
2023/08/21 02:34:43;;;;;;;18.50;16.00;;;;;;;-128.00;-1.00;-1.00;18868;307;7505248;-35
2023/08/21 02:37:09;;;;;;;24.90;22.50;;;;;;;-128.00;-1.00;-1.00;18871;294;7504501;-31
2023/08/21 02:39:35;;;;;;;24.90;21.70;;;;;;;-128.00;-1.00;-1.00;18875;294;7504983;-35
2023/08/21 02:42:02;;;;;;;17.50;15.60;;;;;;;-128.00;-1.00;-1.00;18875;294;7504545;-31
2023/08/21 02:44:28;;;;;;;16.90;14.50;;;;;;;-128.00;-1.00;-1.00;18904;295;7504494;-31
2023/08/21 02:46:54;;;;;;;14.40;12.60;;;;;;;-128.00;-1.00;-1.00;18859;294;7504683;-35
2023/08/21 02:49:20;;;;;;;16.30;13.10;;;;;;;-128.00;-1.00;-1.00;18870;295;7504451;-31
2023/08/21 02:51:46;;;;;;;16.20;14.60;;;;;;;-128.00;-1.00;-1.00;18876;307;7505161;-36
2023/08/21 02:54:13;;;;;;;14.10;12.60;;;;;;;-128.00;-1.00;-1.00;18912;295;7504927;-35
2023/08/21 02:56:40;;;;;;;17.20;15.60;;;;;;;-128.00;-1.00;-1.00;18472;294;7504344;-31
2023/08/21 02:59:06;;;;;;;21.10;16.90;;;;;;;-128.00;-1.00;-1.00;18477;287;7504978;-36
2023/08/21 03:01:32;;;;;;;42.40;34.40;;;;;;;-128.00;-1.00;-1.00;18889;347;7504333;-36
2023/08/21 03:03:58;;;;;;;17.30;15.20;;;;;;;-128.00;-1.00;-1.00;18893;295;7504579;-32
2023/08/21 03:06:24;;;;;;;16.00;13.20;;;;;;;-128.00;-1.00;-1.00;18876;288;7504162;-36
2023/08/21 03:08:50;;;;;;;17.60;14.50;;;;;;;-128.00;-1.00;-1.00;18890;311;7504849;-33
2023/08/21 03:11:16;;;;;;;10.70;9.70;;;;;;;-128.00;-1.00;-1.00;18892;294;7504661;-36
2023/08/21 03:13:43;;;;;;;14.30;12.50;;;;;;;-128.00;-1.00;-1.00;18871;294;7504910;-36
2023/08/21 03:16:09;;;;;;;16.30;12.50;;;;;;;-128.00;-1.00;-1.00;18879;319;7504706;-32
2023/08/21 03:18:53;;;;;;;13.80;12.50;;;;;;;-128.00;-1.00;-1.00;18880;294;7504463;-37
2023/08/21 03:21:19;;;;;;;14.70;13.10;;;;;;;-128.00;-1.00;-1.00;18495;288;7504812;-35
2023/08/21 03:23:45;;;;;;;16.90;15.10;;;;;;;-128.00;-1.00;-1.00;18862;295;7504827;-31
2023/08/21 03:26:11;;;;;;;15.60;14.10;;;;;;;-128.00;-1.00;-1.00;18889;295;7504761;-31
2023/08/21 03:28:37;;;;;;;17.40;15.50;;;;;;;-128.00;-1.00;-1.00;18882;294;7504460;-31
2023/08/21 03:31:03;;;;;;;13.80;12.50;;;;;;;-128.00;-1.00;-1.00;18909;288;7507699;-32
2023/08/21 03:33:29;;;;;;;15.90;13.40;;;;;;;-128.00;-1.00;-1.00;18885;347;7504666;-36
2023/08/21 03:35:55;;;;;;;24.00;14.10;;;;;;;-128.00;-1.00;-1.00;18899;294;7504208;-32
2023/08/21 03:38:22;;;;;;;18.20;16.10;;;;;;;-128.00;-1.00;-1.00;18892;346;7505012;-32
2023/08/21 03:40:48;;;;;;;15.70;14.20;;;;;;;-128.00;-1.00;-1.00;18892;347;7505023;-36
2023/08/21 03:43:14;;;;;;;13.50;12.10;;;;;;;-128.00;-1.00;-1.00;18863;294;7505232;-33
2023/08/21 03:45:40;;;;;;;12.50;11.00;;;;;;;-128.00;-1.00;-1.00;18901;294;7504461;-36
2023/08/21 03:48:06;;;;;;;11.80;10.60;;;;;;;-128.00;-1.00;-1.00;18875;294;7504683;-35
2023/08/21 03:50:32;;;;;;;11.10;10.00;;;;;;;-128.00;-1.00;-1.00;18877;294;7505565;-35
2023/08/21 03:52:58;;;;;;;13.70;11.90;;;;;;;-128.00;-1.00;-1.00;18865;295;7504458;-32
2023/08/21 03:55:24;;;;;;;13.40;12.10;;;;;;;-128.00;-1.00;-1.00;18871;294;7505170;-35
2023/08/21 03:57:51;;;;;;;14.20;12.40;;;;;;;-128.00;-1.00;-1.00;18482;295;7506039;-32
2023/08/21 04:00:16;;;;;;;13.40;11.90;;;;;;;-128.00;-1.00;-1.00;18449;335;7504577;-36
2023/08/21 04:02:42;;;;;;;9.70;8.80;;;;;;;-128.00;-1.00;-1.00;18468;294;7504363;-32
2023/08/21 04:05:10;;;;;;;14.90;12.60;;;;;;;-128.00;-1.00;-1.00;18879;294;7505762;-32
2023/08/21 04:07:36;;;;;;;13.10;11.80;;;;;;;-128.00;-1.00;-1.00;18477;294;7504876;-32
2023/08/21 04:10:02;;;;;;;14.20;11.60;;;;;;;-128.00;-1.00;-1.00;18868;294;7504406;-31
2023/08/21 04:12:28;;;;;;;14.20;11.00;;;;;;;-128.00;-1.00;-1.00;18867;295;7504512;-32
2023/08/21 04:14:54;;;;;;;13.90;12.00;;;;;;;-128.00;-1.00;-1.00;18873;294;7504423;-35
2023/08/21 04:17:22;;;;;;;15.80;13.60;;;;;;;-128.00;-1.00;-1.00;18899;294;7505019;-31
2023/08/21 04:19:49;;;;;;;16.50;14.00;;;;;;;-128.00;-1.00;-1.00;18500;338;7504440;-36
2023/08/21 04:22:15;;;;;;;13.70;12.40;;;;;;;-128.00;-1.00;-1.00;18479;295;7506640;-33
2023/08/21 04:24:41;;;;;;;29.70;14.80;;;;;;;-128.00;-1.00;-1.00;18462;339;7506642;-32
2023/08/21 04:27:08;;;;;;;14.20;12.80;;;;;;;-128.00;-1.00;-1.00;18479;294;7505009;-32
2023/08/21 04:29:35;;;;;;;20.80;15.00;;;;;;;-128.00;-1.00;-1.00;18494;298;7505847;-33
2023/08/21 04:32:02;;;;;;;13.90;12.50;;;;;;;-128.00;-1.00;-1.00;18481;294;7504931;-33
2023/08/21 04:34:27;;;;;;;14.90;13.40;;;;;;;-128.00;-1.00;-1.00;18482;294;7505066;-36
2023/08/21 04:36:53;;;;;;;14.00;12.50;;;;;;;-128.00;-1.00;-1.00;18922;294;7504403;-36
2023/08/21 04:39:19;;;;;;;17.50;14.20;;;;;;;-128.00;-1.00;-1.00;18871;294;7505113;-36
2023/08/21 04:41:46;;;;;;;13.80;12.10;;;;;;;-128.00;-1.00;-1.00;18861;346;7504412;-36
2023/08/21 04:44:12;;;;;;;20.70;12.70;;;;;;;-128.00;-1.00;-1.00;18863;294;7504282;-36
2023/08/21 04:46:38;;;;;;;13.90;12.40;;;;;;;-128.00;-1.00;-1.00;18880;295;7504399;-35
2023/08/21 04:49:05;;;;;;;16.80;13.80;;;;;;;-128.00;-1.00;-1.00;18895;319;7506145;-32
2023/08/21 04:51:31;;;;;;;13.70;12.40;;;;;;;-128.00;-1.00;-1.00;18483;294;7506154;-36
2023/08/21 04:53:59;;;;;;;17.60;12.50;;;;;;;-128.00;-1.00;-1.00;18491;294;7504691;-32
2023/08/21 04:56:25;;;;;;;13.90;12.40;;;;;;;-128.00;-1.00;-1.00;18464;294;7505603;-36
2023/08/21 04:58:52;;;;;;;15.40;12.30;;;;;;;-128.00;-1.00;-1.00;18482;287;7506017;-32
2023/08/21 05:01:18;;;;;;;16.70;13.10;;;;;;;-128.00;-1.00;-1.00;18500;294;7504950;-36
2023/08/21 05:03:43;;;;;;;15.70;14.00;;;;;;;-128.00;-1.00;-1.00;18467;294;7504649;-32
2023/08/21 05:06:09;;;;;;;21.10;16.40;;;;;;;-128.00;-1.00;-1.00;18477;294;7506008;-36
2023/08/21 05:08:35;;;;;;;21.10;15.90;;;;;;;-128.00;-1.00;-1.00;18492;294;7506029;-36
2023/08/21 05:11:00;;;;;;;16.30;12.20;;;;;;;-128.00;-1.00;-1.00;18462;294;7504895;-33
2023/08/21 05:13:26;;;;;;;17.80;15.80;;;;;;;-128.00;-1.00;-1.00;18502;294;7504943;-35
2023/08/21 05:15:56;;;;;;;20.00;14.10;;;;;;;-128.00;-1.00;-1.00;18451;294;7504670;-36
2023/08/21 05:18:22;;;;;;;25.80;15.50;;;;;;;-128.00;-1.00;-1.00;18455;339;7504633;-33
2023/08/21 05:20:49;;;;;;;21.20;17.30;;;;;;;-128.00;-1.00;-1.00;18501;295;7505328;-33
2023/08/21 05:23:15;;;;;;;19.50;13.80;;;;;;;-128.00;-1.00;-1.00;18478;294;7504511;-35
2023/08/21 05:25:40;;;;;;;21.90;16.40;;;;;;;-128.00;-1.00;-1.00;18502;295;7504365;-37
2023/08/21 05:28:06;;;;;;;15.40;13.90;;;;;;;-128.00;-1.00;-1.00;18525;288;7506017;-33
2023/08/21 05:30:32;;;;;;;14.60;12.60;;;;;;;-128.00;-1.00;-1.00;18484;294;7504404;-37
2023/08/21 05:32:58;;;;;;;18.10;13.10;;;;;;;-128.00;-1.00;-1.00;18506;335;7504915;-35
2023/08/21 05:35:23;;;;;;;18.30;15.70;;;;;;;-128.00;-1.00;-1.00;18483;307;7504562;-32
2023/08/21 05:37:49;;;;;;;19.30;15.90;;;;;;;-128.00;-1.00;-1.00;18888;287;7504929;-35
2023/08/21 05:40:16;;;;;;;20.90;15.70;;;;;;;-128.00;-1.00;-1.00;18882;296;7504313;-37
2023/08/21 05:42:42;;;;;;;16.00;14.30;;;;;;;-128.00;-1.00;-1.00;18881;310;7505014;-35
2023/08/21 05:45:08;;;;;;;16.60;12.50;;;;;;;-128.00;-1.00;-1.00;18884;287;7505444;-34
2023/08/21 05:47:34;;;;;;;16.00;13.40;;;;;;;-128.00;-1.00;-1.00;18903;346;7504853;-35
2023/08/21 05:50:01;;;;;;;16.80;14.70;;;;;;;-128.00;-1.00;-1.00;18879;294;7505035;-37
2023/08/21 05:52:27;;;;;;;13.50;11.20;;;;;;;-128.00;-1.00;-1.00;18493;296;7505276;-35
2023/08/21 05:54:54;;;;;;;13.60;12.00;;;;;;;-128.00;-1.00;-1.00;18876;294;7504725;-32
2023/08/21 05:57:19;;;;;;;20.70;12.90;;;;;;;-128.00;-1.00;-1.00;18471;318;7506211;-35
2023/08/21 05:59:46;;;;;;;11.60;10.50;;;;;;;-128.00;-1.00;-1.00;18478;294;7504366;-34
2023/08/21 06:02:12;;;;;;;14.70;12.70;;;;;;;-128.00;-1.00;-1.00;18464;294;7504325;-36
2023/08/21 06:04:39;;;;;;;11.90;10.70;;;;;;;-128.00;-1.00;-1.00;18469;318;7505080;-33
2023/08/21 06:07:04;;;;;;;14.70;11.40;;;;;;;-128.00;-1.00;-1.00;18467;294;7504516;-36
2023/08/21 06:09:33;;;;;;;13.20;11.90;;;;;;;-128.00;-1.00;-1.00;18890;295;7504995;-36
2023/08/21 06:12:05;;;;;;;10.20;9.20;;;;;;;-128.00;-1.00;-1.00;18491;294;7506201;-36
2023/08/21 06:14:31;;;;;;;9.80;8.60;;;;;;;-128.00;-1.00;-1.00;18513;288;7505018;-36
2023/08/21 06:17:01;;;;;;;8.40;7.50;;;;;;;-128.00;-1.00;-1.00;18476;294;7506026;-35
2023/08/21 06:19:27;;;;;;;6.60;5.80;;;;;;;-128.00;-1.00;-1.00;18509;294;7504363;-32
2023/08/21 06:21:54;;;;;;;10.10;8.60;;;;;;;-128.00;-1.00;-1.00;18477;294;7505684;-32
2023/08/21 06:24:20;;;;;;;8.30;7.50;;;;;;;-128.00;-1.00;-1.00;18449;294;7504630;-36
2023/08/21 06:26:46;;;;;;;7.20;6.40;;;;;;;-128.00;-1.00;-1.00;18845;294;7504385;-32
2023/08/21 06:29:12;;;;;;;7.80;7.00;;;;;;;-128.00;-1.00;-1.00;18885;335;7504601;-35
2023/08/21 06:31:38;;;;;;;7.90;7.10;;;;;;;-128.00;-1.00;-1.00;18904;296;7504973;-32
2023/08/21 06:34:05;;;;;;;7.30;6.60;;;;;;;-128.00;-1.00;-1.00;18878;294;7505190;-33
2023/08/21 06:36:31;;;;;;;10.90;7.90;;;;;;;-128.00;-1.00;-1.00;18884;294;7505331;-35
2023/08/21 06:38:57;;;;;;;9.40;8.20;;;;;;;-128.00;-1.00;-1.00;18874;294;7504187;-36
2023/08/21 06:41:25;;;;;;;7.90;6.90;;;;;;;-128.00;-1.00;-1.00;18869;294;7504932;-35
2023/08/21 06:43:51;;;;;;;6.30;5.70;;;;;;;-128.00;-1.00;-1.00;18491;294;7505295;-36
2023/08/21 06:46:16;;;;;;;20.00;5.90;;;;;;;-128.00;-1.00;-1.00;18454;295;7506132;-36
2023/08/21 06:48:42;;;;;;;8.00;6.40;;;;;;;-128.00;-1.00;-1.00;18460;283;7504586;-33
2023/08/21 06:51:09;;;;;;;7.00;6.40;;;;;;;-128.00;-1.00;-1.00;18447;294;7504776;-32
2023/08/21 06:53:34;;;;;;;8.50;6.70;;;;;;;-128.00;-1.00;-1.00;18479;294;7504824;-33
2023/08/21 06:56:00;;;;;;;8.30;7.50;;;;;;;-128.00;-1.00;-1.00;18457;295;7504587;-36
2023/08/21 06:58:26;;;;;;;7.80;7.10;;;;;;;-128.00;-1.00;-1.00;18479;294;7506246;-33
2023/08/21 07:00:55;;;;;;;8.90;7.60;;;;;;;-128.00;-1.00;-1.00;18461;294;7506388;-36
2023/08/21 07:03:22;;;;;;;7.90;7.20;;;;;;;-128.00;-1.00;-1.00;18506;308;7506611;-36
2023/08/21 07:05:57;;;;;;;8.40;7.80;;;;;;;-128.00;-1.00;-1.00;18453;290;7504110;-33
2023/08/21 07:08:24;;;;;;;7.60;6.90;;;;;;;-128.00;-1.00;-1.00;18464;294;7504524;-36
2023/08/21 07:10:50;;;;;;;7.70;6.10;;;;;;;-128.00;-1.00;-1.00;18470;294;7506019;-36
2023/08/21 07:13:16;;;;;;;12.80;8.90;;;;;;;-128.00;-1.00;-1.00;18469;294;7504568;-33
2023/08/21 07:15:41;;;;;;;10.60;9.60;;;;;;;-128.00;-1.00;-1.00;18496;294;7505776;-33
2023/08/21 07:18:07;;;;;;;9.10;8.20;;;;;;;-128.00;-1.00;-1.00;18466;296;7506302;-36
2023/08/21 07:20:34;;;;;;;11.20;8.60;;;;;;;-128.00;-1.00;-1.00;18462;294;7505023;-35
2023/08/21 07:23:00;;;;;;;8.00;7.20;;;;;;;-128.00;-1.00;-1.00;18456;295;7504204;-36
2023/08/21 07:25:28;;;;;;;7.80;7.10;;;;;;;-128.00;-1.00;-1.00;18477;294;7504684;-36
2023/08/21 07:27:54;;;;;;;6.90;6.20;;;;;;;-128.00;-1.00;-1.00;18490;288;7504962;-36
2023/08/21 07:30:22;;;;;;;6.20;5.60;;;;;;;-128.00;-1.00;-1.00;18498;294;7506655;-35
2023/08/21 07:32:47;;;;;;;6.50;6.00;;;;;;;-128.00;-1.00;-1.00;18499;294;7504262;-34
2023/08/21 07:35:13;;;;;;;6.30;5.60;;;;;;;-128.00;-1.00;-1.00;18483;295;7506016;-32
2023/08/21 07:37:40;;;;;;;10.10;6.90;;;;;;;-128.00;-1.00;-1.00;18486;295;7505312;-36
2023/08/21 07:40:07;;;;;;;5.50;5.00;;;;;;;-128.00;-1.00;-1.00;18478;339;7505645;-32
2023/08/21 07:42:33;;;;;;;6.80;6.30;;;;;;;-128.00;-1.00;-1.00;18480;318;7507255;-32
2023/08/21 07:44:59;;;;;;;6.40;5.60;;;;;;;-128.00;-1.00;-1.00;18481;335;7504914;-33
2023/08/21 07:47:27;;;;;;;4.60;4.00;;;;;;;-128.00;-1.00;-1.00;18493;296;7506374;-32
2023/08/21 07:49:53;;;;;;;6.60;3.90;;;;;;;-128.00;-1.00;-1.00;18495;295;7504203;-33
2023/08/21 07:52:20;;;;;;;4.70;4.30;;;;;;;-128.00;-1.00;-1.00;18489;294;7505545;-36
2023/08/21 07:54:46;;;;;;;4.70;3.70;;;;;;;-128.00;-1.00;-1.00;18478;295;7504462;-35
2023/08/21 07:57:12;;;;;;;5.00;4.50;;;;;;;-128.00;-1.00;-1.00;18478;295;7505297;-33
2023/08/21 07:59:37;;;;;;;3.50;3.20;;;;;;;-128.00;-1.00;-1.00;18491;341;7504572;-33
2023/08/21 08:02:04;;;;;;;3.00;2.80;;;;;;;-128.00;-1.00;-1.00;18476;307;7505946;-33
2023/08/21 08:04:30;;;;;;;4.30;3.80;;;;;;;-128.00;-1.00;-1.00;18468;294;7504487;-34
2023/08/21 08:06:56;;;;;;;9.20;2.30;;;;;;;-128.00;-1.00;-1.00;18475;294;7506048;-35
2023/08/21 08:09:22;;;;;;;3.20;2.90;;;;;;;-128.00;-1.00;-1.00;18473;339;7506240;-33
2023/08/21 08:11:47;;;;;;;4.30;3.90;;;;;;;-128.00;-1.00;-1.00;18469;346;7505927;-36
2023/08/21 08:14:14;;;;;;;4.90;3.80;;;;;;;-128.00;-1.00;-1.00;18506;288;7506595;-32
2023/08/21 08:16:39;;;;;;;7.10;2.60;;;;;;;-128.00;-1.00;-1.00;18464;338;7505045;-34
2023/08/21 08:25:16;;;;;;;3.30;2.90;;;;;;;;;;100808;300;543358;-33
2023/08/21 08:27:42;;;;;;;3.90;3.30;;;;;;;;;;101038;302;25278;-32
2023/08/21 08:30:08;;;;;;;3.60;3.30;;;;;;;;;;101038;302;22577;-32
2023/08/21 08:32:34;;;;;;;6.60;2.80;;;;;;;;;;100990;302;22707;-36
2023/08/21 08:35:00;;;;;;;4.80;3.40;;;;;;;;;;100979;302;22585;-36
2023/08/21 08:37:25;;;;;;;3.50;3.00;;;;;;;;;;101156;302;23014;-35
2023/08/21 08:39:51;;;;;;;5.70;2.90;;;;;;;;;;100540;300;735898;-34
2023/08/21 08:42:16;;;;;;;2.80;2.60;;;;;;;;;;101191;300;22588;-35
2023/08/21 08:44:42;;;;;;;3.50;2.40;;;;;;;;;;101029;300;22662;-32
2023/08/21 08:47:08;;;;;;;3.00;2.70;;;;;;;;;;101131;300;22674;-32
2023/08/21 08:49:34;;;;;;;4.40;2.70;;;;;;;;;;101289;300;22599;-36
2023/08/21 08:52:00;;;;;;;5.80;3.60;;;;;;;;;;101083;300;22583;-32
2023/08/21 08:54:26;;;;;;;3.10;2.70;;;;;;;;;;101065;300;22584;-32
2023/08/21 08:56:52;;;;;;;3.10;2.80;;;;;;;;;;101120;300;22584;-33
2023/08/21 08:59:17;;;;;;;3.40;3.10;;;;;;;;;;101113;300;23045;-37
2023/08/21 09:01:43;;;;;;;3.90;3.40;;;;;;;;;;101133;300;22571;-35
2023/08/21 09:04:10;;;;;;;3.50;3.10;;;;;;;;;;101139;300;22578;-37
2023/08/21 09:06:36;;;;;;;4.90;4.10;;;;;;;;;;101201;300;22580;-36
2023/08/21 09:09:04;;;;;;;3.20;2.90;;;;;;;;;;101199;300;22581;-35
2023/08/21 09:11:29;;;;;;;2.90;2.60;;;;;;;;;;101070;300;22577;-32
2023/08/21 09:13:55;;;;;;;2.70;2.50;;;;;;;;;;101108;290;22585;-32
2023/08/21 09:16:25;;;;;;;2.80;2.50;;;;;;;;;;101117;300;22581;-31
2023/08/21 09:18:57;;;;;;;3.10;2.70;;;;;;;;;;101313;300;22613;-31
2023/08/21 09:21:24;;;;;;;4.70;4.00;;;;;;;;;;101061;300;22576;-35
2023/08/21 09:23:50;;;;;;;11.10;3.90;;;;;;;;;;101075;300;24040;-35
2023/08/21 09:26:20;;;;;;;5.40;3.70;;;;;;;;;;101023;300;22637;-36
2023/08/21 09:28:46;;;;;;;3.30;3.00;;;;;;;;;;101219;300;22638;-33
2023/08/21 09:31:11;;;;;;;3.10;2.50;;;;;;;;;;101174;300;22679;-36
2023/08/21 09:33:37;;;;;;;5.20;4.60;;;;;;;;;;101096;300;22583;-32
2023/08/21 09:36:04;;;;;;;3.90;3.60;;;;;;;;;;101086;300;22679;-35
2023/08/21 09:38:30;;;;;;;4.40;3.00;;;;;;;;;;101137;300;22623;-36
2023/08/21 09:40:55;;;;;;;4.80;3.60;;;;;;;;;;101055;300;23925;-36
2023/08/21 09:43:22;;;;;;;2.70;2.50;;;;;;;;;;101057;300;22582;-32
2023/08/21 09:45:48;;;;;;;4.90;4.20;;;;;;;;;;101026;301;22980;-35
2023/08/21 09:48:13;;;;;;;5.20;2.20;;;;;;;;;;100979;301;22577;-35
2023/08/21 09:50:40;;;;;;;3.50;3.10;;;;;;;;;;101180;300;22655;-35
2023/08/21 09:53:06;;;;;;;4.40;3.90;;;;;;;;;;101345;300;22576;-37
2023/08/21 09:55:32;;;;;;;3.90;2.90;;;;;;;;;;101082;301;22666;-36
2023/08/21 09:57:59;;;;;;;2.40;2.10;;;;;;;;;;101108;289;22579;-36
2023/08/21 10:00:27;;;;;;;2.40;2.30;;;;;;;;;;100945;300;22701;-36
2023/08/21 10:02:52;;;;;;;3.10;2.80;;;;;;;;;;101124;300;22891;-33
2023/08/21 10:05:19;;;;;;;2.30;2.00;;;;;;;;;;101141;289;22741;-36
2023/08/21 10:07:48;;;;;;;2.40;2.20;;;;;;;;;;101061;300;22579;-41
2023/08/21 10:10:13;;;;;;;8.60;2.50;;;;;;;;;;101143;301;22679;-36
2023/08/21 10:12:39;;;;;;;3.30;2.40;;;;;;;;;;100995;301;22581;-32
2023/08/21 10:15:06;;;;;;;2.30;2.10;;;;;;;;;;101338;300;22670;-31
2023/08/21 10:17:32;;;;;;;3.90;3.00;;;;;;;;;;100990;289;23018;-32
2023/08/21 10:20:02;;;;;;;3.30;1.90;;;;;;;;;;101066;301;23486;-32
2023/08/21 10:22:40;;;;;;;3.00;2.40;;;;;;;;;;101283;300;22673;-35
2023/08/21 10:25:13;;;;;;;3.50;3.10;;;;;;;;;;100967;300;22599;-32
2023/08/21 10:27:40;;;;;;;4.10;2.40;;;;;;;;;;101027;302;22998;-31
2023/08/21 10:30:13;;;;;;;2.30;2.10;;;;;;;;;;101095;300;24243;-35
2023/08/21 10:32:44;;;;;;;6.60;2.50;;;;;;;;;;101002;300;22591;-35
2023/08/21 10:35:13;;;;;;;5.30;3.70;;;;;;;;;;101102;301;22889;-36
2023/08/21 10:37:59;;;;;;;2.50;2.00;;;;;;;;;;101119;300;22619;-36
2023/08/21 10:40:24;;;;;;;3.80;2.20;;;;;;;;;;101322;300;24148;-35
2023/08/21 10:42:50;;;;;;;4.00;2.50;;;;;;;;;;101139;301;22809;-35
2023/08/21 10:45:15;;;;;;;4.60;3.20;;;;;;;;;;101189;300;23013;-32
2023/08/21 10:47:41;;;;;;;2.70;2.40;;;;;;;;;;101125;289;22618;-34
2023/08/21 10:50:07;;;;;;;2.50;2.30;;;;;;;;;;101000;300;22580;-35
2023/08/21 10:52:44;;;;;;;2.80;2.20;;;;;;;;;;101017;301;22889;-31
2023/08/21 10:55:10;;;;;;;2.10;2.00;;;;;;;;;;101087;301;26430;-31
2023/08/21 10:57:36;;;;;;;3.50;2.00;;;;;;;;;;100968;301;22680;-35
2023/08/21 11:00:05;;;;;;;2.90;2.50;;;;;;;;;;101237;300;22581;-32
2023/08/21 11:02:31;;;;;;;2.40;2.00;;;;;;;;;;101277;302;22581;-32
2023/08/21 11:04:57;;;;;;;2.20;1.70;;;;;;;;;;101129;300;22827;-35
2023/08/21 11:07:23;;;;;;;2.50;2.10;;;;;;;;;;101174;300;23038;-30
2023/08/21 11:09:49;;;;;;;2.30;2.00;;;;;;;;;;101284;300;22582;-35
2023/08/21 11:12:16;;;;;;;1.90;1.80;;;;;;;;;;101065;301;22582;-36
2023/08/21 11:14:42;;;;;;;2.90;2.50;;;;;;;;;;101217;300;22606;-30
2023/08/21 11:17:07;;;;;;;1.90;1.70;;;;;;;;;;101091;300;22580;-35
2023/08/21 11:19:33;;;;;;;1.80;1.50;;;;;;;;;;101133;300;22840;-35
2023/08/21 11:22:03;;;;;;;4.90;2.50;;;;;;;;;;100990;301;22582;-37
2023/08/21 11:24:41;;;;;;;3.30;2.90;;;;;;;;;;101152;300;22585;-35
2023/08/21 11:27:08;;;;;;;2.40;2.00;;;;;;;;;;101325;295;23519;-35
2023/08/21 11:29:41;;;;;;;3.40;2.10;;;;;;;;;;101398;295;22589;-35
2023/08/21 11:32:07;;;;;;;2.10;1.90;;;;;;;;;;101382;295;24157;-35
2023/08/21 11:34:33;;;;;;;4.30;2.30;;;;;;;;;;101344;295;24210;-31
2023/08/21 11:36:59;;;;;;;1.90;1.70;;;;;;;;;;101532;295;22588;-37
2023/08/21 11:39:29;;;;;;;1.70;1.60;;;;;;;;;;101444;295;22886;-35
2023/08/21 11:41:56;;;;;;;2.50;1.30;;;;;;;;;;101361;295;22578;-31
2023/08/21 11:44:21;;;;;;;2.70;1.80;;;;;;;;;;101453;295;22668;-31
2023/08/21 11:46:47;;;;;;;2.10;1.70;;;;;;;;;;101429;295;22699;-35
2023/08/21 11:49:12;;;;;;;2.30;1.80;;;;;;;;;;101460;295;22577;-31
2023/08/21 11:51:38;;;;;;;2.00;1.30;;;;;;;;;;101496;295;22883;-35
2023/08/21 11:54:04;;;;;;;1.70;1.00;;;;;;;;;;101466;295;22686;-35
2023/08/21 11:56:30;;;;;;;1.30;1.20;;;;;;;;;;101502;295;22580;-31
2023/08/21 11:58:58;;;;;;;1.70;1.20;;;;;;;;;;101592;295;22579;-31
2023/08/21 12:01:24;;;;;;;1.90;1.00;;;;;;;;;;101398;283;22754;-31
2023/08/21 12:03:54;;;;;;;1.90;1.60;;;;;;;;;;101361;295;22892;-33
2023/08/21 12:06:20;;;;;;;1.20;1.10;;;;;;;;;;101556;284;22673;-30
2023/08/21 12:08:46;;;;;;;2.20;1.20;;;;;;;;;;101549;295;22887;-35
2023/08/21 12:11:11;;;;;;;1.50;1.10;;;;;;;;;;101433;295;24073;-32
2023/08/21 12:13:37;;;;;;;9.90;1.20;;;;;;;;;;101496;295;22699;-31
2023/08/21 12:16:03;;;;;;;3.20;1.70;;;;;;;;;;101518;295;23007;-37
2023/08/21 12:18:29;;;;;;;2.20;1.40;;;;;;;;;;101407;295;22676;-34
2023/08/21 12:20:54;;;;;;;1.30;1.20;;;;;;;;;;101451;307;24290;-32
2023/08/21 12:23:20;;;;;;;1.70;1.60;;;;;;;;;;101571;295;22639;-37
2023/08/21 12:25:45;;;;;;;2.60;2.00;;;;;;;;;;101481;283;22670;-32
2023/08/21 12:28:11;;;;;;;2.00;1.80;;;;;;;;;;101487;295;22540;-35
2023/08/21 12:30:37;;;;;;;2.80;2.50;;;;;;;;;;101331;295;22638;-31
2023/08/21 12:33:02;;;;;;;1.70;1.60;;;;;;;;;;101534;295;22885;-37
2023/08/21 13:18:04;;;;;;;2.40;2.20;;;;;;;-96.05;8.19;19977.95;90241;295;5044525;-30
2023/08/21 13:20:30;;;;;;;3.00;2.40;;;;;;;-128.00;-1.00;-1.00;85347;283;4503820;-35
2023/08/21 13:22:55;;;;;;;2.30;2.00;;;;;;;-128.00;-1.00;-1.00;85822;294;4503666;-36
2023/08/21 13:25:24;;;;;;;4.60;2.90;;;;;;;-128.00;-1.00;-1.00;85833;294;4505185;-36
2023/08/21 13:27:51;;;;;;;2.60;1.80;;;;;;;-128.00;-1.00;-1.00;85749;294;4503841;-32
2023/08/21 13:30:17;;;;;;;2.00;1.80;;;;;;;-128.00;-1.00;-1.00;85658;294;4504297;-32
2023/08/21 13:32:43;;;;;;;1.80;1.60;;;;;;;-128.00;-1.00;-1.00;85819;294;4505434;-33
2023/08/21 13:35:09;;;;;;;2.00;1.70;;;;;;;-128.00;-1.00;-1.00;85656;294;4505192;-32
2023/08/21 13:37:35;;;;;;;2.40;1.60;;;;;;;-128.00;-1.00;-1.00;85692;283;4504159;-31
2023/08/21 13:40:09;;;;;;;3.30;1.80;;;;;;;-128.00;-1.00;-1.00;85842;294;4505523;-31
2023/08/21 13:42:40;;;;;;;2.20;2.10;;;;;;;-128.00;-1.00;-1.00;85641;295;4505242;-32
2023/08/21 13:45:12;;;;;;;3.00;2.10;;;;;;;-128.00;-1.00;-1.00;85644;294;4503887;-35
2023/08/21 13:47:39;;;;;;;1.60;1.50;;;;;;;-128.00;-1.00;-1.00;85776;294;4503589;-33